Welcome to Northern Hawkes Bay. New Zealand.
PWS Header
      nz Flag



Hit Counter


W3C Valid W3C Valid logo


    Wairoa

Select any of the Stations below to visit their websites.










Historic Data from Weather Underground
Select the location of interest below. Wairoa is the default. Please have patience, this Data is slow to load in.
Northern Hawkes Bay Historical Data
Daily Summary for March 17, 2017 Units:  Metric    English   Both
« Previous Day
Next Day »
Daily Weekly Monthly Yearly Custom
  High: Low: Average:
Temperature: 27.6 °C 10.6 °C 17.5 °C
Dew Point: 16.3 °C 10.4 °C 13.1 °C
Humidity: 99% 42% 78%
Wind Speed: 14.8km/h 0.0km/h 2.9km/h
Wind Gust: 17.2km/h - -
Wind- - SSW
Pressure: 1029.7 hPa 1024.3 hPa -
Precipitation: 0.0 mm    
Historical Graphs
 
 
Tabular Data for March 17, 2017
Time Temperature Dew Point Pressure Wind Wind Speed Wind Gust Humidity Rainfall Rate (Hourly) solar
00:04 11.4 °C 11.1 °C 1029.0 hPa Calm   1.1 km/h 98% 0.0 mm 0 W/m2
00:09 11.4 °C 11.1 °C 1029.0 hPa NNW 1.1 km/h 5.0 km/h 98% 0.0 mm 0 W/m2
00:14 11.3 °C 11.0 °C 1029.3 hPa Calm   5.0 km/h 98% 0.0 mm 0 W/m2
00:33 11.2 °C 10.9 °C 1029.0 hPa Calm     98% 0.0 mm 0 W/m2
00:38 11.2 °C 10.9 °C 1029.0 hPa North 2.6 km/h 5.0 km/h 98% 0.0 mm 0 W/m2
00:43 11.2 °C 10.9 °C 1029.3 hPa Calm   6.1 km/h 98% 0.0 mm 0 W/m2
00:48 11.3 °C 11.0 °C 1029.3 hPa NNW 5.0 km/h 7.2 km/h 98% 0.0 mm 0 W/m2
00:53 11.3 °C 11.0 °C 1029.3 hPa NNW 5.0 km/h 7.2 km/h 98% 0.0 mm 0 W/m2
00:58 11.3 °C 11.0 °C 1029.0 hPa NNW 3.5 km/h 7.2 km/h 98% 0.0 mm 0 W/m2
01:03 11.2 °C 10.9 °C 1029.0 hPa Calm   7.2 km/h 98% 0.0 mm 0 W/m2
01:08 11.2 °C 10.9 °C 1029.0 hPa NW 5.0 km/h 7.2 km/h 98% 0.0 mm 0 W/m2
01:13 11.2 °C 10.9 °C 1029.0 hPa NNW 3.5 km/h 8.7 km/h 98% 0.0 mm 0 W/m2
01:18 11.2 °C 10.9 °C 1029.0 hPa NNW 1.1 km/h 8.7 km/h 98% 0.0 mm 0 W/m2
01:23 11.2 °C 10.9 °C 1029.0 hPa NNW 2.6 km/h 7.2 km/h 98% 0.0 mm 0 W/m2
01:29 11.2 °C 10.9 °C 1029.3 hPa NNW 3.5 km/h 7.2 km/h 98% 0.0 mm 0 W/m2
01:34 11.2 °C 10.9 °C 1029.3 hPa NNW 3.5 km/h 7.2 km/h 98% 0.0 mm 0 W/m2
01:39 11.1 °C 10.8 °C 1029.0 hPa NNW 5.0 km/h 7.2 km/h 98% 0.0 mm 0 W/m2
01:44 10.9 °C 10.8 °C 1029.0 hPa NNW 3.5 km/h 8.7 km/h 99% 0.0 mm 0 W/m2
01:49 10.9 °C 10.8 °C 1029.0 hPa NNW 5.0 km/h 8.7 km/h 99% 0.0 mm 0 W/m2
01:54 10.8 °C 10.7 °C 1029.0 hPa NNW 3.5 km/h 8.7 km/h 99% 0.0 mm 0 W/m2
01:59 10.9 °C 10.8 °C 1029.0 hPa NW 6.1 km/h 11.1 km/h 99% 0.0 mm 0 W/m2
02:04 11.0 °C 10.7 °C 1029.0 hPa NNW 5.0 km/h 11.1 km/h 98% 0.0 mm 0 W/m2
02:09 11.0 °C 10.7 °C 1029.0 hPa NNW 3.5 km/h 9.7 km/h 98% 0.0 mm 0 W/m2
02:14 10.9 °C 10.8 °C 1029.0 hPa Calm   8.7 km/h 99% 0.0 mm 0 W/m2
02:19 10.9 °C 10.8 °C 1029.0 hPa NNW 5.0 km/h 8.7 km/h 99% 0.0 mm 0 W/m2
02:24 10.9 °C 10.8 °C 1029.0 hPa NNW 5.0 km/h 8.7 km/h 99% 0.0 mm 0 W/m2
02:29 10.9 °C 10.8 °C 1029.3 hPa NNW 3.5 km/h 7.2 km/h 99% 0.0 mm 0 W/m2
02:34 10.9 °C 10.8 °C 1029.3 hPa NNW 2.6 km/h 7.2 km/h 99% 0.0 mm 0 W/m2
02:39 11.0 °C 10.7 °C 1029.3 hPa Calm   7.2 km/h 98% 0.0 mm 0 W/m2
02:44 11.1 °C 10.8 °C 1029.3 hPa Calm     98% 0.0 mm 0 W/m2
02:49 11.1 °C 10.8 °C 1029.0 hPa Calm     98% 0.0 mm 0 W/m2
02:54 11.2 °C 10.9 °C 1029.0 hPa Calm     98% 0.0 mm 0 W/m2
02:59 11.3 °C 11.0 °C 1029.3 hPa North 2.6 km/h 7.2 km/h 98% 0.0 mm 0 W/m2
03:04 11.4 °C 11.1 °C 1029.3 hPa Calm   7.2 km/h 98% 0.0 mm 0 W/m2
03:09 11.4 °C 11.1 °C 1029.0 hPa Calm   6.1 km/h 98% 0.0 mm 0 W/m2
03:14 11.5 °C 11.2 °C 1029.0 hPa North 3.5 km/h 8.7 km/h 98% 0.0 mm 0 W/m2
03:19 11.6 °C 11.3 °C 1029.0 hPa North 1.1 km/h 8.7 km/h 98% 0.0 mm 0 W/m2
03:24 11.7 °C 11.4 °C 1028.7 hPa NNW 1.1 km/h 7.2 km/h 98% 0.0 mm 0 W/m2
03:29 11.8 °C 11.5 °C 1029.0 hPa NNW 2.6 km/h 7.2 km/h 98% 0.0 mm 0 W/m2
03:34 11.8 °C 11.5 °C 1029.0 hPa NNW 7.2 km/h 9.7 km/h 98% 0.0 mm 0 W/m2
03:39 11.8 °C 11.5 °C 1029.0 hPa North 1.1 km/h 11.1 km/h 98% 0.0 mm 0 W/m2
03:44 11.7 °C 11.4 °C 1029.0 hPa North 5.0 km/h 11.1 km/h 98% 0.0 mm 0 W/m2
03:49 11.7 °C 11.4 °C 1029.0 hPa NNW 8.7 km/h 14.8 km/h 98% 0.0 mm 0 W/m2
03:54 11.7 °C 11.4 °C 1028.7 hPa NNW 6.1 km/h 14.8 km/h 98% 0.0 mm 0 W/m2
03:59 11.7 °C 11.4 °C 1028.7 hPa NW 5.0 km/h 14.8 km/h 98% 0.0 mm 0 W/m2
04:04 11.8 °C 11.5 °C 1028.7 hPa NW 6.1 km/h 11.1 km/h 98% 0.0 mm 0 W/m2
04:09 11.8 °C 11.5 °C 1028.7 hPa NW 5.0 km/h 11.1 km/h 98% 0.0 mm 0 W/m2
04:27 12.1 °C 11.7 °C 1028.7 hPa NNW 2.6 km/h 8.7 km/h 97% 0.0 mm 0 W/m2
04:32 12.1 °C 11.7 °C 1028.7 hPa NNW 5.0 km/h 8.7 km/h 97% 0.0 mm 0 W/m2
04:37 12.2 °C 11.7 °C 1029.0 hPa North 2.6 km/h 7.2 km/h 97% 0.0 mm 0 W/m2
04:42 12.2 °C 11.7 °C 1028.7 hPa NNW 3.5 km/h 7.2 km/h 97% 0.0 mm 0 W/m2
04:47 12.2 °C 11.7 °C 1028.7 hPa Calm   7.2 km/h 97% 0.0 mm 0 W/m2
04:52 12.1 °C 11.7 °C 1028.7 hPa North 2.6 km/h 7.2 km/h 97% 0.0 mm 0 W/m2
04:57 12.1 °C 11.7 °C 1028.7 hPa Calm   7.2 km/h 97% 0.0 mm 0 W/m2
05:02 12.1 °C 11.7 °C 1028.7 hPa Calm   7.2 km/h 97% 0.0 mm 0 W/m2
05:07 12.1 °C 11.7 °C 1028.7 hPa NW 3.5 km/h 6.1 km/h 97% 0.0 mm 0 W/m2
05:12 12.1 °C 11.7 °C 1028.7 hPa Calm   6.1 km/h 97% 0.0 mm 0 W/m2
05:17 12.1 °C 11.7 °C 1028.7 hPa NNW 2.6 km/h 7.2 km/h 97% 0.0 mm 0 W/m2
05:22 12.0 °C 11.6 °C 1028.7 hPa Calm   7.2 km/h 97% 0.0 mm 0 W/m2
05:27 12.0 °C 11.6 °C 1028.7 hPa NNW 1.1 km/h 6.1 km/h 97% 0.0 mm 0 W/m2
05:32 11.8 °C 11.5 °C 1028.7 hPa NNE 3.5 km/h 9.7 km/h 98% 0.0 mm 0 W/m2
05:37 11.7 °C 11.4 °C 1028.7 hPa Calm   9.7 km/h 98% 0.0 mm 0 W/m2
05:42 11.7 °C 11.4 °C 1028.3 hPa Calm   6.1 km/h 98% 0.0 mm 0 W/m2
05:47 11.7 °C 11.4 °C 1028.3 hPa Calm     98% 0.0 mm 0 W/m2
05:52 11.7 °C 11.4 °C 1028.7 hPa Calm     98% 0.0 mm 0 W/m2
05:57 11.7 °C 11.4 °C 1028.7 hPa Calm     98% 0.0 mm 0 W/m2
06:02 11.7 °C 11.4 °C 1028.7 hPa Calm     98% 0.0 mm 0 W/m2
06:07 11.6 °C 11.3 °C 1028.7 hPa Calm     98% 0.0 mm 0 W/m2
06:12 11.5 °C 11.2 °C 1028.7 hPa Calm     98% 0.0 mm 0 W/m2
06:17 11.4 °C 11.1 °C 1028.7 hPa Calm     98% 0.0 mm 0 W/m2
06:22 11.3 °C 11.0 °C 1028.3 hPa Calm     98% 0.0 mm 0 W/m2
06:27 11.3 °C 11.0 °C 1028.7 hPa NW 3.5 km/h 8.7 km/h 98% 0.0 mm 0 W/m2
06:32 11.2 °C 10.9 °C 1028.7 hPa NW 6.1 km/h 8.7 km/h 98% 0.0 mm 0 W/m2
06:37 11.3 °C 11.0 °C 1028.7 hPa NW 3.5 km/h 7.2 km/h 98% 0.0 mm 0 W/m2
06:42 11.1 °C 10.8 °C 1028.7 hPa Calm   7.2 km/h 98% 0.0 mm 0 W/m2
06:47 11.0 °C 10.7 °C 1028.7 hPa Calm   7.2 km/h 98% 0.0 mm 0 W/m2
06:52 10.9 °C 10.8 °C 1028.7 hPa Calm     99% 0.0 mm 0 W/m2
06:57 10.8 °C 10.7 °C 1028.7 hPa NNW 2.6 km/h 3.5 km/h 99% 0.0 mm 0 W/m2
07:02 10.8 °C 10.7 °C 1028.3 hPa Calm   5.0 km/h 99% 0.0 mm 0 W/m2
07:07 10.7 °C 10.6 °C 1028.7 hPa Calm   5.0 km/h 99% 0.0 mm 2 W/m2
07:12 10.7 °C 10.6 °C 1028.7 hPa Calm     99% 0.0 mm 4 W/m2
07:17 10.7 °C 10.6 °C 1028.7 hPa Calm     99% 0.0 mm 7 W/m2
07:22 10.7 °C 10.6 °C 1028.3 hPa Calm   3.5 km/h 99% 0.0 mm 11 W/m2
07:27 10.7 °C 10.6 °C 1028.3 hPa Calm   3.5 km/h 99% 0.0 mm 14 W/m2
07:32 10.6 °C 10.4 °C 1028.7 hPa Calm     99% 0.0 mm 18 W/m2
07:37 10.7 °C 10.6 °C 1028.7 hPa Calm     99% 0.0 mm 62 W/m2
07:42 11.0 °C 10.7 °C 1028.7 hPa Calm     98% 0.0 mm 81 W/m2
07:47 11.3 °C 11.0 °C 1028.7 hPa NW 3.5 km/h 7.2 km/h 98% 0.0 mm 96 W/m2
07:52 11.6 °C 11.3 °C 1028.7 hPa NW 1.1 km/h 7.2 km/h 98% 0.0 mm 113 W/m2
07:57 12.0 °C 11.6 °C 1028.7 hPa NNW 3.5 km/h 6.1 km/h 97% 0.0 mm 129 W/m2
08:02 12.2 °C 11.7 °C 1028.7 hPa NNW 3.5 km/h 6.1 km/h 97% 0.0 mm 147 W/m2
08:07 12.3 °C 11.8 °C 1028.7 hPa NW 3.5 km/h 8.7 km/h 97% 0.0 mm 164 W/m2
08:12 12.5 °C 12.1 °C 1028.7 hPa NNW 5.0 km/h 9.7 km/h 97% 0.0 mm 180 W/m2
08:17 12.6 °C 12.2 °C 1028.7 hPa NNW 3.5 km/h 12.2 km/h 97% 0.0 mm 195 W/m2
08:22 12.8 °C 12.3 °C 1028.7 hPa NNW 7.2 km/h 12.2 km/h 97% 0.0 mm 212 W/m2
08:27 13.1 °C 12.9 °C 1029.0 hPa NNW 5.0 km/h 11.1 km/h 99% 0.0 mm 229 W/m2
08:32 13.4 °C 12.9 °C 1029.0 hPa NNW 5.0 km/h 9.7 km/h 97% 0.0 mm 245 W/m2
08:37 13.7 °C 13.1 °C 1029.0 hPa NNW 6.1 km/h 9.7 km/h 96% 0.0 mm 255 W/m2
08:42 13.9 °C 13.1 °C 1029.0 hPa NNW 6.1 km/h 9.7 km/h 95% 0.0 mm 269 W/m2
08:47 14.1 °C 13.0 °C 1029.0 hPa Calm   11.1 km/h 93% 0.0 mm 282 W/m2
08:52 14.8 °C 13.7 °C 1029.0 hPa NNW 5.0 km/h 11.1 km/h 93% 0.0 mm 296 W/m2
08:57 14.8 °C 13.3 °C 1029.0 hPa NW 6.1 km/h 11.1 km/h 91% 0.0 mm 304 W/m2
09:02 14.9 °C 13.3 °C 1029.0 hPa NW 7.2 km/h 11.1 km/h 90% 0.0 mm 310 W/m2
09:07 14.9 °C 13.1 °C 1029.0 hPa NNW 7.2 km/h 12.2 km/h 89% 0.0 mm 315 W/m2
09:12 15.1 °C 13.1 °C 1029.0 hPa NNW 6.1 km/h 12.2 km/h 88% 0.0 mm 318 W/m2
09:14 15.2 °C 13.2 °C 1029.0 hPa NNW 7.2 km/h 12.2 km/h 88% 0.3 mm 319 W/m2
09:19 15.2 °C 13.1 °C 1029.0 hPa North 6.1 km/h 12.2 km/h 87% 0.3 mm 321 W/m2
09:24 15.3 °C 13.2 °C 1029.0 hPa North 5.0 km/h 12.2 km/h 87% 0.3 mm 323 W/m2
09:29 15.5 °C 13.2 °C 1029.3 hPa NNW 9.7 km/h 13.4 km/h 86% 0.3 mm 321 W/m2
09:34 15.7 °C 13.4 °C 1029.3 hPa NNW 8.7 km/h 13.4 km/h 86% 0.3 mm 319 W/m2
09:39 16.2 °C 13.5 °C 1029.3 hPa NNW 7.2 km/h 12.2 km/h 84% 0.3 mm 326 W/m2
09:44 16.6 °C 13.9 °C 1029.3 hPa NNW 5.0 km/h 9.7 km/h 84% 0.3 mm 340 W/m2
09:49 16.9 °C 13.8 °C 1029.3 hPa NNW 5.0 km/h 9.7 km/h 82% 0.3 mm 349 W/m2
09:54 17.3 °C 14.0 °C 1029.3 hPa Calm   9.7 km/h 81% 0.3 mm 360 W/m2
09:59 17.9 °C 14.6 °C 1029.3 hPa NNW 1.1 km/h 9.7 km/h 81% 0.3 mm 368 W/m2
10:05 18.2 °C 14.3 °C 1029.7 hPa NW 3.5 km/h 7.2 km/h 78% 0.3 mm 377 W/m2
10:10 18.4 °C 14.3 °C 1029.3 hPa Calm   6.1 km/h 77% 0.3 mm 382 W/m2
10:15 18.9 °C 14.6 °C 1029.3 hPa Calm   6.1 km/h 76% 0.0 mm 397 W/m2
10:20 19.3 °C 13.9 °C 1029.3 hPa NNW 3.5 km/h 8.7 km/h 71% 0.0 mm 413 W/m2
10:25 19.9 °C 14.7 °C 1029.3 hPa NNW 3.5 km/h 8.7 km/h 72% 0.0 mm 426 W/m2
10:30 20.4 °C 14.6 °C 1029.3 hPa North 3.5 km/h 8.7 km/h 69% 0.0 mm 102 W/m2
10:35 20.8 °C 14.7 °C 1029.3 hPa North 1.1 km/h 8.7 km/h 68% 0.0 mm 94 W/m2
10:40 21.1 °C 14.3 °C 1029.3 hPa NNE 9.7 km/h 12.2 km/h 65% 0.0 mm 113 W/m2
10:45 21.2 °C 13.9 °C 1029.3 hPa NE 7.2 km/h 13.4 km/h 63% 0.0 mm 483 W/m2
10:50 21.5 °C 13.4 °C 1029.0 hPa Calm   13.4 km/h 60% 0.0 mm 85 W/m2
10:55 21.2 °C 13.7 °C 1029.0 hPa NNE 11.1 km/h 13.4 km/h 62% 0.0 mm 478 W/m2
11:00 21.0 °C 13.4 °C 1028.7 hPa North 6.1 km/h 15.8 km/h 62% 0.0 mm 488 W/m2
11:05 21.1 °C 13.6 °C 1029.0 hPa North 5.0 km/h 15.8 km/h 62% 0.0 mm 491 W/m2
11:10 21.5 °C 13.4 °C 1029.0 hPa Calm   11.1 km/h 60% 0.0 mm 508 W/m2
11:15 21.6 °C 13.5 °C 1029.0 hPa NE 6.1 km/h 11.1 km/h 60% 0.0 mm 518 W/m2
11:20 21.6 °C 13.5 °C 1029.0 hPa NNE 5.0 km/h 11.1 km/h 60% 0.0 mm 118 W/m2
11:25 21.5 °C 13.4 °C 1028.7 hPa NNE 1.1 km/h 12.2 km/h 60% 0.0 mm 312 W/m2
11:30 22.0 °C 13.9 °C 1029.0 hPa North 14.8 km/h 17.2 km/h 60% 0.0 mm 575 W/m2
11:36 21.6 °C 13.5 °C 1028.7 hPa NE 11.1 km/h 17.2 km/h 60% 0.0 mm 565 W/m2
11:41 21.8 °C 13.4 °C 1028.7 hPa Calm   14.8 km/h 59% 0.0 mm 572 W/m2
11:46 22.2 °C 13.3 °C 1028.7 hPa ENE 8.7 km/h 14.8 km/h 57% 0.0 mm 636 W/m2
11:51 22.0 °C 14.2 °C 1028.7 hPa Calm   12.2 km/h 61% 0.0 mm 662 W/m2
11:56 21.9 °C 14.6 °C 1028.7 hPa ESE 5.0 km/h 12.2 km/h 63% 0.0 mm 623 W/m2
12:01 21.7 °C 13.3 °C 1028.7 hPa East 7.2 km/h 12.2 km/h 59% 0.0 mm 615 W/m2
12:06 22.2 °C 14.6 °C 1028.3 hPa East 6.1 km/h 12.2 km/h 62% 0.0 mm 585 W/m2
12:11 22.2 °C 12.7 °C 1028.3 hPa East 1.1 km/h 12.2 km/h 55% 0.0 mm 328 W/m2
12:16 22.4 °C 12.9 °C 1028.3 hPa East 2.6 km/h 12.2 km/h 55% 0.0 mm 621 W/m2
12:21 22.5 °C 12.4 °C 1028.3 hPa ENE 2.6 km/h 12.2 km/h 53% 0.0 mm 652 W/m2
12:26 22.4 °C 13.2 °C 1028.3 hPa Calm   12.2 km/h 56% 0.0 mm 671 W/m2
12:31 22.8 °C 14.7 °C 1028.3 hPa NE 3.5 km/h 12.2 km/h 60% 0.0 mm 680 W/m2
12:36 22.3 °C 12.8 °C 1028.3 hPa Calm   11.1 km/h 55% 0.0 mm 696 W/m2
12:41 22.7 °C 13.8 °C 1028.0 hPa NNE 3.5 km/h 11.1 km/h 57% 0.0 mm 705 W/m2
12:46 22.6 °C 14.4 °C 1028.0 hPa SE 3.5 km/h 7.2 km/h 60% 0.0 mm 663 W/m2
12:51 22.8 °C 15.2 °C 1028.0 hPa SE 3.5 km/h 7.2 km/h 62% 0.0 mm 722 W/m2
12:56 23.3 °C 14.3 °C 1028.0 hPa ESE 3.5 km/h 7.2 km/h 57% 0.0 mm 727 W/m2
13:00 23.6 °C 14.6 °C 1028.0 hPa Calm   7.2 km/h 57% 0.0 mm 738 W/m2
13:06 23.9 °C 14.1 °C 1028.0 hPa ENE 5.0 km/h 11.1 km/h 54% 0.0 mm 749 W/m2
13:11 23.6 °C 13.5 °C 1028.0 hPa NE 7.2 km/h 13.4 km/h 53% 0.0 mm 747 W/m2
13:16 23.4 °C 13.3 °C 1027.7 hPa NE 8.7 km/h 13.4 km/h 53% 0.0 mm 748 W/m2
13:21 23.1 °C 13.6 °C 1027.7 hPa NNE 1.1 km/h 13.4 km/h 55% 0.0 mm 749 W/m2
13:26 23.4 °C 13.9 °C 1027.7 hPa North 6.1 km/h 13.4 km/h 55% 0.0 mm 754 W/m2
13:31 23.6 °C 14.1 °C 1027.7 hPa NE 8.7 km/h 13.4 km/h 55% 0.0 mm 761 W/m2
13:36 23.8 °C 13.7 °C 1027.7 hPa NE 6.1 km/h 13.4 km/h 53% 0.0 mm 758 W/m2
13:41 24.0 °C 13.3 °C 1027.7 hPa NE 8.7 km/h 14.8 km/h 51% 0.0 mm 764 W/m2
13:46 24.0 °C 13.3 °C 1027.7 hPa NE 1.1 km/h 14.8 km/h 51% 0.0 mm 759 W/m2
13:51 24.2 °C 13.1 °C 1027.3 hPa NE 8.7 km/h 14.8 km/h 50% 0.0 mm 765 W/m2
13:56 24.0 °C 13.8 °C 1027.3 hPa East 8.7 km/h 13.4 km/h 53% 0.0 mm 758 W/m2
14:01 24.0 °C 13.6 °C 1027.0 hPa ENE 5.0 km/h 13.4 km/h 52% 0.0 mm 756 W/m2
14:06 24.1 °C 13.3 °C 1027.0 hPa NE 2.6 km/h 13.4 km/h 51% 0.0 mm 757 W/m2
14:11 24.2 °C 13.1 °C 1027.0 hPa Calm   14.8 km/h 50% 0.0 mm 753 W/m2
14:16 24.4 °C 13.9 °C 1027.0 hPa NE 3.5 km/h 14.8 km/h 52% 0.0 mm 764 W/m2
14:21 24.2 °C 13.1 °C 1027.0 hPa North 5.0 km/h 13.4 km/h 50% 0.0 mm 455 W/m2
14:26 24.0 °C 13.6 °C 1027.0 hPa North 3.5 km/h 13.4 km/h 52% 0.0 mm 531 W/m2
14:31 24.3 °C 13.6 °C 1026.6 hPa NNE 7.2 km/h 12.2 km/h 51% 0.0 mm 585 W/m2
14:36 24.5 °C 13.7 °C 1026.6 hPa Calm   12.2 km/h 51% 0.0 mm 685 W/m2
14:41 24.7 °C 13.6 °C 1027.0 hPa ENE 3.5 km/h 12.2 km/h 50% 0.0 mm 569 W/m2
14:46 25.2 °C 13.4 °C 1026.6 hPa Calm   11.1 km/h 48% 0.0 mm 726 W/m2
14:51 25.0 °C 13.2 °C 1026.6 hPa NNE 5.0 km/h 12.2 km/h 48% 0.0 mm 175 W/m2
14:56 24.9 °C 13.4 °C 1026.6 hPa Calm   12.2 km/h 49% 0.0 mm 659 W/m2
15:01 25.8 °C 13.7 °C 1026.6 hPa ENE 2.6 km/h 11.1 km/h 47% 0.0 mm 639 W/m2
15:06 25.8 °C 14.0 °C 1026.3 hPa Calm   11.1 km/h 48% 0.0 mm 651 W/m2
15:24 26.1 °C 15.5 °C 1026.3 hPa SSE 5.0 km/h 9.7 km/h 52% 0.0 mm 98 W/m2
15:29 26.3 °C 16.0 °C 1026.0 hPa South 3.5 km/h 9.7 km/h 53% 0.0 mm 81 W/m2
15:34 26.7 °C 15.4 °C 1026.3 hPa Calm   8.7 km/h 50% 0.0 mm 79 W/m2
15:39 26.6 °C 15.7 °C 1026.0 hPa Calm   9.7 km/h 51% 0.0 mm 81 W/m2
15:44 26.8 °C 15.8 °C 1026.0 hPa SSE 8.7 km/h 12.2 km/h 51% 0.0 mm 85 W/m2
15:49 25.7 °C 15.7 °C 1026.0 hPa SSE 3.5 km/h 12.2 km/h 54% 0.0 mm 230 W/m2
15:54 25.6 °C 15.9 °C 1026.0 hPa SSE 2.6 km/h 12.2 km/h 55% 0.0 mm 336 W/m2
15:59 25.5 °C 15.8 °C 1026.0 hPa SSE 6.1 km/h 13.4 km/h 55% 0.0 mm 423 W/m2
16:04 24.8 °C 15.7 °C 1026.0 hPa SE 7.2 km/h 15.8 km/h 57% 0.0 mm 437 W/m2
16:09 25.2 °C 15.8 °C 1026.0 hPa ESE 1.1 km/h 15.8 km/h 56% 0.0 mm 491 W/m2
16:14 25.5 °C 15.8 °C 1026.0 hPa SE 6.1 km/h 13.4 km/h 55% 0.0 mm 277 W/m2
16:19 25.6 °C 15.9 °C 1025.6 hPa SSE 5.0 km/h 13.4 km/h 55% 0.0 mm 196 W/m2
16:24 25.4 °C 15.7 °C 1026.0 hPa SE 2.6 km/h 13.4 km/h 55% 0.0 mm 77 W/m2
16:29 25.4 °C 15.7 °C 1025.6 hPa SSE 3.5 km/h 13.4 km/h 55% 0.0 mm 383 W/m2
16:34 25.8 °C 15.8 °C 1025.6 hPa SSE 6.1 km/h 11.1 km/h 54% 0.0 mm 308 W/m2
16:39 26.1 °C 15.8 °C 1025.6 hPa SSE 7.2 km/h 11.1 km/h 53% 0.0 mm 392 W/m2
16:44 26.0 °C 15.7 °C 1025.6 hPa SSE 6.1 km/h 11.1 km/h 53% 0.0 mm 377 W/m2
16:49 26.6 °C 15.9 °C 1025.6 hPa SE 3.5 km/h 11.1 km/h 52% 0.0 mm 361 W/m2
17:10 26.8 °C 16.2 °C 1025.3 hPa SSE 5.0 km/h 8.7 km/h 52% 0.0 mm 294 W/m2
17:15 27.4 °C 15.4 °C 1025.3 hPa SSE 5.0 km/h 8.7 km/h 48% 0.0 mm 280 W/m2
17:20 26.7 °C 16.1 °C 1024.9 hPa SW 7.2 km/h 8.7 km/h 52% 0.0 mm 263 W/m2
17:26 26.3 °C 16.3 °C 1025.3 hPa South 1.1 km/h 11.1 km/h 54% 0.0 mm 244 W/m2
17:31 26.8 °C 15.8 °C 1025.3 hPa SE 3.5 km/h 11.1 km/h 51% 0.0 mm 230 W/m2
17:36 25.9 °C 15.9 °C 1025.3 hPa SSE 7.2 km/h 13.4 km/h 54% 0.0 mm 214 W/m2
17:41 26.1 °C 16.1 °C 1025.3 hPa South 3.5 km/h 13.4 km/h 54% 0.0 mm 203 W/m2
17:46 26.5 °C 15.6 °C 1025.3 hPa Calm   9.7 km/h 51% 0.0 mm 189 W/m2
17:51 26.7 °C 15.7 °C 1025.3 hPa Calm   7.2 km/h 51% 0.0 mm 176 W/m2
17:56 27.3 °C 14.7 °C 1024.9 hPa Calm     46% 0.0 mm 161 W/m2
18:01 27.6 °C 13.9 °C 1024.9 hPa Calm   5.0 km/h 43% 0.0 mm 150 W/m2
18:06 27.4 °C 13.4 °C 1024.9 hPa NNE 3.5 km/h 11.1 km/h 42% 0.0 mm 131 W/m2
18:11 26.9 °C 13.7 °C 1024.9 hPa NNE 2.6 km/h 11.1 km/h 44% 0.0 mm 117 W/m2
18:16 26.9 °C 13.3 °C 1024.9 hPa NE 5.0 km/h 9.7 km/h 43% 0.0 mm 100 W/m2
18:21 26.1 °C 12.9 °C 1024.9 hPa NE 6.1 km/h 9.7 km/h 44% 0.0 mm 84 W/m2
18:26 25.0 °C 12.6 °C 1025.3 hPa NE 3.5 km/h 9.7 km/h 46% 0.0 mm 42 W/m2
18:31 23.9 °C 13.8 °C 1024.9 hPa NE 2.6 km/h 11.1 km/h 53% 0.0 mm 41 W/m2
18:36 23.5 °C 13.9 °C 1024.9 hPa North 6.1 km/h 11.1 km/h 55% 0.0 mm 39 W/m2
18:41 23.5 °C 14.5 °C 1024.9 hPa NNE 3.5 km/h 11.1 km/h 57% 0.0 mm 43 W/m2
18:46 23.2 °C 14.8 °C 1024.9 hPa NE 7.2 km/h 12.2 km/h 59% 0.0 mm 36 W/m2
18:51 22.7 °C 14.8 °C 1024.9 hPa NE 3.5 km/h 13.4 km/h 61% 0.0 mm 29 W/m2
18:56 22.0 °C 14.7 °C 1024.9 hPa NE 5.0 km/h 13.4 km/h 63% 0.0 mm 25 W/m2
19:02 21.5 °C 14.7 °C 1024.9 hPa NE 3.5 km/h 11.1 km/h 65% 0.0 mm 21 W/m2
19:07 21.2 °C 14.6 °C 1024.9 hPa NNE 5.0 km/h 9.7 km/h 66% 0.0 mm 18 W/m2
19:12 20.9 °C 14.8 °C 1024.9 hPa NNE 2.6 km/h 9.7 km/h 68% 0.0 mm 14 W/m2
19:17 20.6 °C 14.7 °C 1024.9 hPa NE 1.1 km/h 9.7 km/h 69% 0.0 mm 11 W/m2
19:22 20.3 °C 14.7 °C 1024.9 hPa NE 3.5 km/h 9.7 km/h 70% 0.0 mm 7 W/m2
19:27 20.0 °C 14.6 °C 1025.3 hPa NE 5.0 km/h 9.7 km/h 71% 0.0 mm 4 W/m2
19:32 19.8 °C 14.8 °C 1025.3 hPa NE 3.5 km/h 9.7 km/h 73% 0.0 mm 1 W/m2
19:37 19.6 °C 14.8 °C 1025.3 hPa NE 2.6 km/h 7.2 km/h 74% 0.0 mm 0 W/m2
19:42 19.3 °C 14.6 °C 1025.3 hPa NE 2.6 km/h 7.2 km/h 74% 0.0 mm 0 W/m2
19:47 19.1 °C 14.4 °C 1025.3 hPa NNE 3.5 km/h 7.2 km/h 74% 0.0 mm 0 W/m2
19:52 18.9 °C 14.6 °C 1025.3 hPa North 3.5 km/h 7.2 km/h 76% 0.0 mm 0 W/m2
19:57 18.8 °C 14.5 °C 1025.3 hPa North 2.6 km/h 7.2 km/h 76% 0.0 mm 0 W/m2
20:02 18.6 °C 14.3 °C 1025.3 hPa Calm   6.1 km/h 76% 0.0 mm 0 W/m2
20:07 18.4 °C 14.3 °C 1025.3 hPa NNE 1.1 km/h 6.1 km/h 77% 0.0 mm 0 W/m2
20:12 18.3 °C 14.2 °C 1025.3 hPa North 1.1 km/h 6.1 km/h 77% 0.0 mm 0 W/m2
20:17 18.1 °C 14.0 °C 1025.3 hPa Calm   3.5 km/h 77% 0.0 mm 0 W/m2
20:22 18.0 °C 14.1 °C 1025.3 hPa NNE 2.6 km/h 8.7 km/h 78% 0.0 mm 0 W/m2
20:27 17.9 °C 14.2 °C 1025.3 hPa Calm   8.7 km/h 79% 0.0 mm 0 W/m2
20:32 17.7 °C 14.0 °C 1025.3 hPa Calm   6.1 km/h 79% 0.0 mm 0 W/m2
20:37 17.6 °C 14.1 °C 1024.9 hPa North 2.6 km/h 5.0 km/h 80% 0.0 mm 0 W/m2
20:42 17.5 °C 14.2 °C 1025.3 hPa North 2.6 km/h 5.0 km/h 81% 0.0 mm 0 W/m2
20:47 17.4 °C 14.1 °C 1024.9 hPa Calm   5.0 km/h 81% 0.0 mm 0 W/m2
20:52 17.3 °C 14.0 °C 1025.3 hPa North 3.5 km/h 8.7 km/h 81% 0.0 mm 0 W/m2
20:57 17.3 °C 14.0 °C 1025.3 hPa Calm   8.7 km/h 81% 0.0 mm 0 W/m2
21:02 17.2 °C 13.9 °C 1025.3 hPa NNE 1.1 km/h 8.7 km/h 81% 0.0 mm 0 W/m2
21:07 17.1 °C 13.8 °C 1024.9 hPa North 1.1 km/h 7.2 km/h 81% 0.0 mm 0 W/m2
21:12 17.0 °C 13.7 °C 1025.3 hPa Calm   7.2 km/h 81% 0.0 mm 0 W/m2
21:17 16.9 °C 14.0 °C 1025.3 hPa Calm   3.5 km/h 83% 0.0 mm 0 W/m2
21:22 16.8 °C 13.9 °C 1025.3 hPa Calm   3.5 km/h 83% 0.0 mm 0 W/m2
21:27 16.6 °C 13.7 °C 1025.3 hPa Calm     83% 0.0 mm 0 W/m2
21:32 16.6 °C 13.9 °C 1025.3 hPa Calm     84% 0.0 mm 0 W/m2
21:37 16.5 °C 13.8 °C 1025.3 hPa Calm     84% 0.0 mm 0 W/m2
21:42 16.3 °C 13.6 °C 1025.3 hPa Calm     84% 0.0 mm 0 W/m2
21:47 16.1 °C 13.4 °C 1025.3 hPa Calm     84% 0.0 mm 0 W/m2
21:52 16.0 °C 13.5 °C 1024.9 hPa Calm     85% 0.0 mm 0 W/m2
21:57 15.8 °C 13.4 °C 1024.9 hPa Calm     86% 0.0 mm 0 W/m2
22:02 15.6 °C 13.3 °C 1024.9 hPa Calm     86% 0.0 mm 0 W/m2
22:07 15.6 °C 13.4 °C 1024.9 hPa Calm     87% 0.0 mm 0 W/m2
22:12 15.6 °C 13.4 °C 1024.9 hPa Calm     87% 0.0 mm 0 W/m2
22:17 15.6 °C 13.6 °C 1024.9 hPa Calm     88% 0.0 mm 0 W/m2
22:22 15.6 °C 13.6 °C 1024.9 hPa Calm     88% 0.0 mm 0 W/m2
22:27 15.5 °C 13.6 °C 1024.9 hPa Calm     88% 0.0 mm 0 W/m2
22:32 15.4 °C 13.6 °C 1024.9 hPa Calm     89% 0.0 mm 0 W/m2
22:37 15.3 °C 13.5 °C 1024.9 hPa Calm     89% 0.0 mm 0 W/m2
22:42 15.3 °C 13.7 °C 1024.9 hPa Calm     90% 0.0 mm 0 W/m2
22:47 15.3 °C 13.8 °C 1024.9 hPa Calm     91% 0.0 mm 0 W/m2
22:52 15.3 °C 13.8 °C 1024.9 hPa Calm     91% 0.0 mm 0 W/m2
23:12 15.1 °C 13.8 °C 1024.6 hPa Calm     92% 0.0 mm 0 W/m2
23:17 15.1 °C 13.8 °C 1024.6 hPa Calm     92% 0.0 mm 0 W/m2
23:37 15.2 °C 14.1 °C 1024.6 hPa Calm     93% 0.0 mm 0 W/m2
23:42 15.2 °C 14.1 °C 1024.6 hPa Calm     93% 0.0 mm 0 W/m2
23:47 15.3 °C 14.2 °C 1024.3 hPa Calm   5.0 km/h 93% 0.0 mm 0 W/m2
23:52 15.2 °C 14.2 °C 1024.3 hPa Calm   5.0 km/h 94% 0.0 mm 0 W/m2
23:57 15.2 °C 14.2 °C 1024.3 hPa Calm   2.6 km/h 94% 0.0 mm 0 W/m2
Northern Hawkes Bay. New Zealand Historic Data
Compliments of Weather Underground - 2 mb